Time;durP1;ratioP1;P1;durP2;ratioP2;P2;SDS_P1;SDS_P2;PMS_P1;PMS_P2;Temp;Humidity;BMP_temperature;BMP_pressure;BME280_temperature;BME280_humidity;BME280_pressure;Samples;Min_cycle;Max_cycle;Signal;HPM_P1;HPM_P2
2022/05/30 07:58:53;;;;;;;5.38;1.80;;;;;;;11.77;56.69;101231.47;5327351;27;1198063;-79
2022/05/30 08:01:25;;;;;;;3.22;1.70;;;;;;;11.59;55.95;101228.25;5331447;28;20027;-79
2022/05/30 08:03:56;;;;;;;5.35;1.50;;;;;;;11.64;56.45;101231.00;5343550;27;20084;-78
2022/05/30 08:06:30;;;;;;;4.45;1.42;;;;;;;11.65;56.65;101229.88;5344039;28;20032;-76
2022/05/30 08:09:01;;;;;;;6.80;1.45;;;;;;;11.69;58.10;101236.53;5344016;27;20041;-79
2022/05/30 08:11:33;;;;;;;5.60;1.58;;;;;;;11.84;58.89;101232.00;5343410;28;20118;-80
2022/05/30 08:14:07;;;;;;;4.32;1.60;;;;;;;11.79;58.29;101232.03;5332039;27;20509;-80
2022/05/30 08:16:38;;;;;;;3.70;1.92;;;;;;;11.92;59.78;101236.97;5338519;28;20065;-80
2022/05/30 08:19:09;;;;;;;6.25;2.40;;;;;;;11.86;58.21;101236.16;5326347;28;20015;-78
2022/05/30 08:21:41;;;;;;;4.75;1.75;;;;;;;11.95;58.33;101237.19;5343427;27;20020;-78
2022/05/30 08:24:18;;;;;;;5.47;1.80;;;;;;;11.94;57.83;101237.50;5342682;28;20466;-80
2022/05/30 08:26:49;;;;;;;5.70;2.00;;;;;;;12.00;56.70;101235.50;5343060;27;20047;-79
2022/05/30 08:29:20;;;;;;;2.40;1.35;;;;;;;12.05;56.19;101233.50;5337767;27;20023;-79
2022/05/30 08:31:52;;;;;;;5.03;1.83;;;;;;;12.13;56.69;101224.53;5332076;28;20034;-81
2022/05/30 08:34:23;;;;;;;3.63;1.45;;;;;;;12.16;55.27;101226.75;5350113;27;20023;-80
2022/05/30 08:36:55;;;;;;;3.95;1.48;;;;;;;12.25;55.17;101226.13;5350667;27;20479;-81
2022/05/30 08:42:22;;;;;;;5.43;1.40;;;;;;;12.26;54.18;101238.91;5346580;28;20063;-80
2022/05/30 08:44:55;;;;;;;5.00;2.35;;;;;;;12.37;55.02;101240.47;5328878;27;20020;-81
2022/05/30 08:47:48;;;;;;;2.88;1.20;;;;;;;12.38;53.48;101247.69;5338422;27;20020;-80
2022/05/30 08:50:54;;;;;;;1.33;1.00;;;;;;;12.51;52.94;101244.22;5339580;28;20028;-79
2022/05/30 08:54:03;;;;;;;4.60;2.92;;;;;;;12.68;53.13;101249.38;5303263;28;20036;-81
2022/05/30 08:56:39;;;;;;;3.95;1.60;;;;;;;12.58;53.08;101246.69;5344464;28;20027;-83
2022/05/30 08:59:22;;;;;;;8.35;3.08;;;;;;;12.71;52.81;101245.97;5326551;28;20039;-81
2022/05/30 09:01:59;;;;;;;8.70;2.00;;;;;;;12.76;52.81;101250.66;5332723;27;20379;-81
2022/05/30 09:04:40;;;;;;;4.60;1.40;;;;;;;13.11;52.25;101240.25;5336104;28;20035;-81
2022/05/30 09:07:19;;;;;;;4.05;1.35;;;;;;;13.29;52.48;101252.59;5321128;28;20538;-80
2022/05/30 09:10:12;;;;;;;5.03;1.40;;;;;;;13.29;52.03;101245.03;5327697;28;20047;-82
2022/05/30 09:13:06;;;;;;;2.30;1.33;;;;;;;13.61;52.31;101246.31;5324308;28;20572;-83
2022/05/30 09:15:52;;;;;;;3.50;1.40;;;;;;;13.62;50.95;101247.94;5315426;28;20023;-83
2022/05/30 09:18:30;;;;;;;4.07;2.00;;;;;;;13.81;51.97;101248.81;5328770;28;20027;-81
2022/05/30 09:21:02;;;;;;;5.53;1.73;;;;;;;13.88;52.81;101251.19;5310816;28;20550;-82
2022/05/30 09:26:22;;;;;;;4.57;1.42;;;;;;;14.02;50.73;101245.69;5477234;22;20056;-81
2022/05/30 09:28:54;;;;;;;6.57;1.40;;;;;;;13.85;49.24;101238.69;5258897;28;20124;-81
2022/05/30 09:31:46;;;;;;;2.80;1.40;;;;;;;13.91;49.00;101242.25;5258267;28;20368;-81
2022/05/30 09:34:35;;;;;;;3.97;1.60;;;;;;;13.83;50.28;101246.53;5250360;28;20075;-80
2022/05/30 09:37:06;;;;;;;3.58;1.60;;;;;;;13.48;50.33;101243.13;5259999;28;20352;-81
2022/05/30 09:39:46;;;;;;;7.13;1.70;;;;;;;13.52;51.09;101240.56;5252325;28;20108;-80
2022/05/30 09:42:37;;;;;;;3.70;1.30;;;;;;;13.34;47.63;101244.97;5250771;28;20056;-81
2022/05/30 09:45:15;;;;;;;3.30;1.50;;;;;;;13.28;47.82;101248.97;5263857;28;20139;-81
2022/05/30 09:48:14;;;;;;;3.53;1.50;;;;;;;13.40;47.20;101249.38;5263711;28;20033;-80
2022/05/30 09:50:49;;;;;;;2.00;1.50;;;;;;;13.36;48.06;101253.88;5263115;28;20017;-79
2022/05/30 09:53:51;;;;;;;2.53;1.38;;;;;;;13.53;48.25;101245.03;5249257;28;20029;-79
2022/05/30 09:56:23;;;;;;;3.35;1.20;;;;;;;13.32;47.19;101243.63;5247484;28;20037;-81
2022/05/30 09:58:57;;;;;;;2.85;1.30;;;;;;;13.39;47.53;101246.88;5259356;28;20044;-79
2022/05/30 10:01:32;;;;;;;3.88;1.30;;;;;;;13.47;48.39;101249.00;5253984;28;20805;-79
2022/05/30 10:04:34;;;;;;;4.88;2.38;;;;;;;13.49;48.35;101253.13;5262900;28;20029;-78
2022/05/30 10:07:08;;;;;;;8.10;4.35;;;;;;;13.41;48.52;101248.22;5261158;28;20065;-78
2022/05/30 10:09:51;;;;;;;42.30;37.60;;;;;;;13.53;48.61;101244.19;5253709;28;20037;-83
2022/05/30 10:12:36;;;;;;;7.15;3.53;;;;;;;13.55;48.41;101234.41;5257989;28;20424;-84
2022/05/30 10:15:24;;;;;;;4.60;1.60;;;;;;;13.65;47.90;101244.56;5248137;28;20100;-84
2022/05/30 10:18:12;;;;;;;7.28;5.95;;;;;;;13.78;49.79;101238.25;5259218;28;20033;-89
2022/05/30 10:21:22;;;;;;;3.35;1.80;;;;;;;13.72;48.68;101246.97;5267838;28;20029;-91
2022/05/30 10:31:01;;;;;;;4.60;1.67;;;;;;;13.84;47.28;101247.38;5259136;28;20044;-92
2022/05/30 10:34:16;;;;;;;5.50;2.63;;;;;;;14.04;46.14;101240.66;5286201;22;20067;-92
2022/05/30 10:37:08;;;;;;;2.80;1.58;;;;;;;14.23;45.65;101244.22;5248809;28;20107;-83
2022/05/30 10:40:04;;;;;;;4.30;1.80;;;;;;;14.52;46.62;101246.81;5242776;28;20139;-78
2022/05/30 10:42:43;;;;;;;3.53;1.67;;;;;;;14.55;45.99;101239.81;5245680;28;20084;-80
2022/05/30 10:45:37;;;;;;;4.15;1.45;;;;;;;14.77;47.17;101247.47;5232214;28;20017;-81
2022/05/30 10:48:24;;;;;;;4.82;1.45;;;;;;;14.99;47.06;101244.81;5247213;28;20496;-81
2022/05/30 10:51:05;;;;;;;3.88;1.73;;;;;;;15.17;46.31;101245.03;5245835;28;20125;-81
2022/05/30 10:53:54;;;;;;;21.73;18.63;;;;;;;15.27;45.34;101250.41;5244006;28;20067;-81
2022/05/30 10:56:32;;;;;;;9.98;8.95;;;;;;;15.19;43.98;101259.50;5244109;28;20178;-85
2022/05/30 10:59:29;;;;;;;2.72;1.58;;;;;;;15.16;42.76;101249.78;5244207;28;20473;-83
2022/05/30 11:02:06;;;;;;;4.65;1.30;;;;;;;15.28;42.47;101254.00;5231213;28;20056;-77
2022/05/30 11:05:09;;;;;;;5.00;1.38;;;;;;;15.23;42.40;101255.75;5238191;28;20060;-81
2022/05/30 11:07:52;;;;;;;5.75;2.15;;;;;;;15.16;43.77;101251.72;5229772;28;20033;-79
2022/05/30 11:10:35;;;;;;;5.60;4.28;;;;;;;14.91;43.04;101250.31;5241418;28;20083;-79
2022/05/30 11:13:20;;;;;;;70.65;51.70;;;;;;;14.87;43.57;101249.25;5240882;28;20022;-80
2022/05/30 11:15:59;;;;;;;11.73;8.40;;;;;;;14.67;43.86;101248.50;5239559;28;20033;-79
2022/05/30 11:18:47;;;;;;;5.43;1.52;;;;;;;14.46;48.34;101247.19;5225663;28;20029;-74
2022/05/30 11:21:55;;;;;;;4.75;2.00;;;;;;;14.40;50.19;101249.25;5226157;28;20021;-83
2022/05/30 11:24:27;;;;;;;5.15;2.00;;;;;;;13.95;49.69;101254.44;5171092;28;20518;-75
2022/05/30 11:27:23;;;;;;;7.93;3.50;;;;;;;14.03;50.17;101250.94;5238621;28;20473;-76
2022/05/30 11:30:18;;;;;;;3.20;1.80;;;;;;;14.01;50.16;101252.38;5241465;28;20376;-75
2022/05/30 11:33:12;;;;;;;4.45;2.13;;;;;;;13.92;49.94;101250.28;5244177;28;20049;-75
2022/05/30 11:35:56;;;;;;;4.65;1.92;;;;;;;13.98;50.61;101259.41;5241327;28;20079;-75
2022/05/30 11:39:14;;;;;;;4.20;1.80;;;;;;;14.00;48.93;101259.09;5241298;28;20522;-75
2022/05/30 11:42:10;;;;;;;3.70;1.67;;;;;;;13.98;49.94;101264.16;5145519;29;20147;-75
2022/05/30 11:44:51;;;;;;;4.05;2.30;;;;;;;14.03;50.46;101256.53;5157484;29;20110;-76
2022/05/30 11:47:42;;;;;;;5.35;2.70;;;;;;;14.08;50.11;101252.84;5226858;28;20428;-76
2022/05/30 11:50:34;;;;;;;3.90;1.75;;;;;;;14.10;49.27;101261.72;5240909;28;20159;-78
2022/05/30 11:53:49;;;;;;;5.57;3.25;;;;;;;14.10;49.37;101256.16;5241888;28;20045;-77
2022/05/30 11:56:59;;;;;;;18.13;14.40;;;;;;;14.02;48.86;101254.06;5227164;28;20057;-78
2022/05/30 12:00:04;;;;;;;29.25;26.20;;;;;;;14.08;49.28;101255.63;5227896;28;20028;-76
2022/05/30 12:02:59;;;;;;;5.72;3.08;;;;;;;14.28;50.04;101249.72;5236530;28;20057;-77
2022/05/30 12:05:57;;;;;;;7.60;2.30;;;;;;;14.30;49.57;101255.00;5227842;28;20079;-76
2022/05/30 12:08:49;;;;;;;5.47;2.20;;;;;;;14.35;48.91;101258.53;5232958;28;20034;-79
2022/05/30 12:11:41;;;;;;;4.82;2.00;;;;;;;14.33;47.59;101258.00;5222662;28;20434;-79
2022/05/30 12:14:28;;;;;;;5.20;2.17;;;;;;;14.55;48.25;101256.56;5237899;28;20446;-76
2022/05/30 12:17:25;;;;;;;4.20;2.10;;;;;;;14.32;48.51;101263.91;5241672;28;20034;-77
2022/05/30 12:25:36;;;;;;;5.70;2.25;;;;;;;14.59;47.77;101248.38;5241167;28;20030;-78
2022/05/30 12:28:34;;;;;;;5.17;2.17;;;;;;;14.74;48.49;101248.91;5242049;28;20025;-79
2022/05/30 12:31:07;;;;;;;3.20;1.90;;;;;;;14.73;46.62;101252.84;5193369;28;20292;-78
2022/05/30 12:33:48;;;;;;;4.47;1.77;;;;;;;14.56;45.79;101249.81;5232406;28;20080;-78
2022/05/30 12:36:19;;;;;;;4.70;2.50;;;;;;;14.53;46.24;101247.66;5239007;28;20021;-78
2022/05/30 12:38:54;;;;;;;9.23;2.05;;;;;;;14.74;47.31;101246.13;5239570;28;20038;-78
2022/05/30 12:41:30;;;;;;;5.50;1.73;;;;;;;14.83;49.42;101243.47;5242965;28;20603;-83
2022/05/30 12:44:01;;;;;;;;;;;;;;;15.06;47.67;101244.41;5246459;28;20372;-83
2022/05/30 12:46:52;;;;;;;5.63;2.38;;;;;;;15.18;52.66;101244.69;5248668;28;20123;-81
2022/05/30 12:49:34;;;;;;;3.03;1.38;;;;;;;15.10;48.42;101242.63;5252027;28;20333;-81
2022/05/30 12:52:20;;;;;;;3.03;1.73;;;;;;;14.99;48.61;101238.41;5252696;28;20032;-81
2022/05/30 12:54:57;;;;;;;4.85;2.00;;;;;;;14.98;44.52;101236.72;5248314;28;20120;-79
2022/05/30 12:57:43;;;;;;;12.20;10.38;;;;;;;14.83;43.46;101237.88;5248635;28;20026;-80
2022/05/30 13:00:21;;;;;;;3.00;1.63;;;;;;;14.73;43.95;101236.09;5249038;28;20034;-79
2022/05/30 13:02:52;;;;;;;5.22;1.90;;;;;;;14.69;44.03;101239.81;5251478;28;20029;-78
2022/05/30 13:05:31;;;;;;;6.50;5.37;;;;;;;14.65;46.40;101241.56;5250013;28;20041;-76
2022/05/30 13:08:41;;;;;;;14.90;10.75;;;;;;;14.62;44.96;101245.78;5249748;28;20292;-81
2022/05/30 13:11:39;;;;;;;8.00;3.85;;;;;;;14.53;44.21;101244.84;5251221;28;20044;-79
2022/05/30 13:14:36;;;;;;;3.90;1.70;;;;;;;14.64;45.01;101240.72;5265434;28;20096;-80
2022/05/30 13:17:41;;;;;;;5.93;2.33;;;;;;;14.79;48.72;101239.63;5262324;28;20030;-78
2022/05/30 13:20:18;;;;;;;6.63;5.05;;;;;;;15.03;51.04;101236.63;5246781;28;20039;-80
2022/05/30 13:22:54;;;;;;;4.55;1.77;;;;;;;14.89;44.30;101245.00;5254089;28;20477;-77
2022/05/30 13:25:36;;;;;;;7.97;2.55;;;;;;;14.99;46.08;101244.81;5252654;28;20017;-79
2022/05/30 13:28:16;;;;;;;7.40;2.00;;;;;;;15.05;45.74;101242.72;5256336;28;20029;-80
2022/05/30 13:30:49;;;;;;;7.32;3.78;;;;;;;15.16;47.27;101244.19;5250141;28;20039;-79
2022/05/30 13:33:31;;;;;;;5.43;1.90;;;;;;;15.04;44.16;101249.47;5254972;28;20037;-81
2022/05/30 13:36:34;;;;;;;2.80;1.90;;;;;;;14.97;44.68;101254.63;5261727;28;20098;-79
2022/05/30 13:39:06;;;;;;;3.75;2.20;;;;;;;14.99;44.71;101244.00;5255332;28;20049;-78
2022/05/30 13:41:39;;;;;;;4.70;2.90;;;;;;;14.91;44.66;101245.53;5243367;28;20029;-81
2022/05/30 13:44:17;;;;;;;3.30;2.22;;;;;;;14.92;44.78;101249.16;5243762;28;20033;-80
2022/05/30 13:47:01;;;;;;;5.40;1.90;;;;;;;14.91;45.05;101251.13;5248049;28;20049;-79
2022/05/30 13:49:40;;;;;;;4.07;1.80;;;;;;;14.95;45.29;101246.56;5243657;28;20029;-79
2022/05/30 13:52:24;;;;;;;4.97;2.05;;;;;;;14.93;45.55;101243.28;5230744;28;20030;-79
2022/05/30 13:54:58;;;;;;;5.32;1.90;;;;;;;14.89;44.88;101246.97;5252262;28;20028;-79
2022/05/30 13:57:32;;;;;;;3.70;1.73;;;;;;;14.96;45.45;101250.19;5243130;28;20090;-79
2022/05/30 14:00:15;;;;;;;4.95;1.92;;;;;;;15.02;45.46;101237.78;5243241;28;20030;-79
2022/05/30 14:02:49;;;;;;;5.57;2.45;;;;;;;15.19;48.68;101237.97;5242693;28;20034;-79
2022/05/30 14:05:41;;;;;;;5.85;3.00;;;;;;;15.28;46.26;101234.44;5243447;28;20056;-78
2022/05/30 14:08:35;;;;;;;5.82;2.10;;;;;;;15.28;45.07;101240.03;5243306;28;20026;-78
2022/05/30 14:11:14;;;;;;;5.75;4.18;;;;;;;15.34;45.18;101238.78;5252333;28;20434;-80
2022/05/30 14:13:45;;;;;;;6.90;3.28;;;;;;;15.27;44.09;101230.00;5244138;28;20036;-78
2022/05/30 14:16:34;;;;;;;4.13;2.00;;;;;;;15.56;47.70;101244.44;5244730;28;20029;-80
2022/05/30 14:19:11;;;;;;;7.03;4.15;;;;;;;15.60;45.32;101239.06;5242629;28;20025;-79
2022/05/30 14:21:51;;;;;;;5.20;2.38;;;;;;;15.66;45.15;101233.03;5243001;28;20033;-79
2022/05/30 14:24:26;;;;;;;5.75;2.63;;;;;;;15.76;46.60;101242.38;5250173;28;20021;-76
2022/05/30 14:27:00;;;;;;;5.82;2.05;;;;;;;15.80;46.68;101235.84;5242435;28;20108;-79
2022/05/30 14:29:42;;;;;;;3.28;2.10;;;;;;;15.84;44.42;101230.44;5360222;22;20048;-76
2022/05/30 14:32:19;;;;;;;2.95;2.05;;;;;;;15.73;42.98;101227.06;5286853;28;20029;-77
2022/05/30 14:35:27;;;;;;;4.22;1.73;;;;;;;15.84;44.07;101230.44;5283496;28;20063;-76
2022/05/30 14:37:58;;;;;;;3.78;1.90;;;;;;;15.71;43.82;101231.31;5208738;28;20502;-77
2022/05/30 14:40:50;;;;;;;3.43;1.60;;;;;;;15.69;43.63;101230.75;5272711;28;20052;-75
2022/05/30 14:43:23;;;;;;;4.45;1.92;;;;;;;15.37;42.30;101227.81;5278330;28;20321;-75
2022/05/30 14:46:02;;;;;;;5.78;2.03;;;;;;;15.47;43.32;101232.38;5283738;28;20063;-79
2022/05/30 14:48:37;;;;;;;6.35;2.10;;;;;;;15.46;43.13;101219.50;5283096;28;20429;-79
2022/05/30 14:51:30;;;;;;;4.38;2.13;;;;;;;15.63;44.30;101230.88;5281636;28;20032;-80
2022/05/30 14:54:36;;;;;;;5.35;2.00;;;;;;;15.76;43.18;101223.63;5283777;28;20120;-84
2022/05/30 14:57:21;;;;;;;4.00;2.10;;;;;;;15.95;45.86;101228.22;5281718;28;20472;-77
2022/05/30 14:59:53;;;;;;;5.53;2.22;;;;;;;16.15;45.16;101215.69;5283181;28;20032;-76
2022/05/30 15:05:14;;;;;;;3.40;1.83;;;;;;;16.07;43.20;101226.50;5284616;28;20032;-80
2022/05/30 15:07:54;;;;;;;12.07;10.50;;;;;;;16.20;43.48;101230.38;5283121;28;20103;-83
2022/05/30 15:10:25;;;;;;;17.42;9.35;;;;;;;16.35;45.03;101220.75;5283149;28;20047;-75
2022/05/30 15:12:57;;;;;;;11.23;3.13;;;;;;;16.23;44.02;101231.72;5282448;28;20016;-78
2022/05/30 15:15:28;;;;;;;7.45;3.10;;;;;;;16.33;43.88;101225.84;5282713;28;20023;-79
2022/05/30 15:18:00;;;;;;;4.32;1.85;;;;;;;16.15;42.17;101224.09;5282959;28;20111;-77
2022/05/30 15:20:32;;;;;;;3.83;2.00;;;;;;;16.00;41.74;101220.53;5282248;28;20474;-80
2022/05/30 15:23:03;;;;;;;5.00;2.00;;;;;;;15.90;42.12;101223.59;5282954;28;20096;-77
2022/05/30 15:25:35;;;;;;;2.90;1.67;;;;;;;15.91;42.25;101224.41;5282951;28;20360;-79
2022/05/30 15:28:06;;;;;;;4.32;2.50;;;;;;;16.03;42.91;101221.88;5283488;28;20023;-78
2022/05/30 15:30:39;;;;;;;4.13;2.25;;;;;;;15.93;41.79;101222.94;5282714;28;20135;-78
2022/05/30 15:33:12;;;;;;;7.47;2.35;;;;;;;15.88;42.60;101214.69;5274531;28;20021;-79
2022/05/30 15:35:43;;;;;;;5.82;2.25;;;;;;;16.00;44.65;101220.53;5282857;28;20055;-76
2022/05/30 15:38:15;;;;;;;4.50;1.83;;;;;;;15.78;41.73;101215.75;5463000;22;20475;-79
2022/05/30 15:47:27;;;;;;;5.50;1.90;;;;;;;16.09;42.14;101215.81;5276371;28;20049;-80
2022/05/30 15:50:20;;;;;;;4.03;1.88;;;;;;;16.04;42.45;101210.34;5283191;28;20040;-78
2022/05/30 15:58:37;;;;;;;4.45;2.30;;;;;;;16.03;44.49;101208.72;5277551;28;20036;-76
2022/05/30 16:01:08;;;;;;;5.90;2.28;;;;;;;16.06;42.95;101210.88;5281622;28;20021;-75
2022/05/30 16:03:39;;;;;;;3.42;2.20;;;;;;;16.07;41.90;101214.47;5280530;28;20031;-79
2022/05/30 16:06:11;;;;;;;5.35;2.28;;;;;;;15.75;40.95;101210.78;5281950;28;20367;-79
2022/05/30 16:08:47;;;;;;;4.93;1.80;;;;;;;15.76;41.48;101209.63;5276693;28;20119;-79
2022/05/30 16:11:18;;;;;;;4.60;2.50;;;;;;;15.44;41.84;101210.59;5263194;28;20017;-84
2022/05/30 16:13:50;;;;;;;5.03;1.98;;;;;;;15.54;41.13;101207.59;5266322;28;20483;-84
2022/05/30 16:16:23;;;;;;;4.65;2.67;;;;;;;15.69;41.90;101200.00;5276845;28;20021;-83
2022/05/30 16:18:54;;;;;;;5.88;2.10;;;;;;;15.72;41.02;101211.44;5278389;28;20423;-78
2022/05/30 16:21:26;;;;;;;3.85;2.13;;;;;;;15.86;44.43;101203.78;5283609;28;20032;-79
2022/05/30 16:24:01;;;;;;;8.32;1.85;;;;;;;15.93;44.84;101206.16;5275472;28;20021;-80
2022/05/30 16:26:38;;;;;;;23.13;19.85;;;;;;;15.88;41.91;101211.88;5281440;28;20021;-79
2022/05/30 16:29:09;;;;;;;4.22;2.45;;;;;;;15.77;41.96;101207.66;5273895;28;20115;-78
2022/05/30 16:31:40;;;;;;;5.40;2.22;;;;;;;15.84;45.63;101214.47;5278461;28;20572;-79
2022/05/30 16:34:13;;;;;;;5.47;2.20;;;;;;;15.86;42.58;101208.56;5270928;28;20108;-79
2022/05/30 16:36:47;;;;;;;3.88;2.63;;;;;;;15.86;42.43;101205.78;5281167;28;20024;-76
2022/05/30 16:39:18;;;;;;;4.95;2.00;;;;;;;15.88;42.36;101209.09;5272912;28;20021;-80
2022/05/30 16:41:53;;;;;;;6.13;2.58;;;;;;;15.80;41.23;101207.06;5275645;28;20070;-79
2022/05/30 16:44:25;;;;;;;3.35;1.70;;;;;;;15.86;41.99;101206.59;5283997;28;20046;-80
2022/05/30 16:46:57;;;;;;;6.15;1.98;;;;;;;15.84;41.46;101205.25;5281765;28;20107;-79
2022/05/30 16:49:30;;;;;;;4.18;1.90;;;;;;;15.88;41.48;101203.50;5272635;28;20574;-80
2022/05/30 16:52:02;;;;;;;5.05;2.20;;;;;;;15.91;41.34;101190.84;5285559;28;20464;-80
2022/05/30 16:54:35;;;;;;;5.57;2.50;;;;;;;16.09;41.51;101195.41;5286429;28;20041;-80
2022/05/30 16:57:07;;;;;;;5.78;2.50;;;;;;;16.14;41.25;101194.47;5269034;28;20455;-79
2022/05/30 17:07:48;;;;;;;5.68;1.83;;;;;;;15.98;40.83;101191.22;3354243;22;20139;-79
2022/05/30 17:10:20;;;;;;;4.05;2.40;;;;;;;16.00;41.32;101198.16;5286777;28;20486;-79
2022/05/30 17:12:54;;;;;;;5.72;2.00;;;;;;;16.13;40.88;101192.78;5287379;28;20024;-81
2022/05/30 17:15:25;;;;;;;4.95;2.40;;;;;;;16.18;41.99;101189.88;5287375;28;20028;-79
2022/05/30 17:17:59;;;;;;;3.75;2.08;;;;;;;16.20;41.49;101196.78;5284593;28;20035;-78
2022/05/30 17:20:36;;;;;;;4.30;2.38;;;;;;;16.17;40.58;101199.41;5286218;28;20549;-80
2022/05/30 17:23:07;;;;;;;4.88;1.88;;;;;;;16.05;41.17;101206.44;5285685;28;20021;-80
2022/05/30 17:25:42;;;;;;;3.50;2.47;;;;;;;16.12;40.92;101208.75;5285756;28;20372;-79
